createdAt,value
2023-05-22T00:10:18.671Z,0
2023-05-22T00:15:18.828Z,0
2023-05-22T00:20:19.051Z,0
2023-05-22T00:25:19.348Z,0
2023-05-22T00:30:19.019Z,0
2023-05-22T00:35:18.821Z,0
2023-05-22T00:40:18.856Z,0
2023-05-22T00:45:18.915Z,0
2023-05-22T00:50:19.091Z,0
2023-05-22T00:55:17.220Z,0
2023-05-22T01:00:19.184Z,0
2023-05-22T01:05:18.868Z,0
2023-05-22T01:10:19.168Z,0
2023-05-22T01:15:16.894Z,0
2023-05-22T01:20:17.049Z,0
2023-05-22T01:25:17.028Z,0
2023-05-22T01:30:17.269Z,0
2023-05-22T01:35:17.263Z,0
2023-05-22T01:40:17.265Z,0
2023-05-22T01:45:18.039Z,0
2023-05-22T01:50:17.977Z,0
2023-05-22T01:55:17.210Z,0
2023-05-22T02:00:17.141Z,0
2023-05-22T02:05:17.033Z,0
2023-05-22T02:10:17.804Z,0
2023-05-22T02:15:17.280Z,0
2023-05-22T02:20:17.133Z,0
2023-05-22T02:25:17.585Z,0
2023-05-22T02:30:17.289Z,0
2023-05-22T02:35:17.063Z,0
2023-05-22T02:40:17.469Z,0
2023-05-22T02:45:17.762Z,0
2023-05-22T02:50:17.309Z,0
2023-05-22T02:55:17.211Z,0
2023-05-22T03:00:17.134Z,0
2023-05-22T03:05:17.274Z,0
2023-05-22T03:10:17.352Z,0
2023-05-22T03:15:17.144Z,0
2023-05-22T03:20:17.432Z,0
2023-05-22T03:25:17.529Z,0
2023-05-22T03:30:17.248Z,0
2023-05-22T03:35:17.183Z,0
2023-05-22T03:40:17.347Z,0
2023-05-22T03:45:18.080Z,0
2023-05-22T03:50:19.490Z,0
2023-05-22T03:55:17.326Z,0
2023-05-22T04:00:18.498Z,0
2023-05-22T04:05:18.313Z,0
2023-05-22T04:10:18.650Z,0
2023-05-22T04:15:18.310Z,0
2023-05-22T04:20:18.382Z,0
2023-05-22T04:25:18.812Z,0
2023-05-22T04:30:18.282Z,0
2023-05-22T04:35:18.304Z,0
2023-05-22T04:40:18.674Z,0
2023-05-22T04:45:18.433Z,0
2023-05-22T04:50:18.622Z,0
2023-05-22T04:55:18.426Z,0
2023-05-22T05:00:18.841Z,0
2023-05-22T05:05:18.268Z,0
2023-05-22T05:10:18.665Z,0
2023-05-22T05:15:18.648Z,0
2023-05-22T05:20:18.696Z,0
2023-05-22T05:25:18.711Z,0
2023-05-22T05:30:20.338Z,0
2023-05-22T05:35:18.905Z,0
2023-05-22T05:40:19.887Z,0
2023-05-22T05:45:19.652Z,0
2023-05-22T05:50:20.012Z,0
2023-05-22T05:55:18.769Z,0
2023-05-22T06:00:18.618Z,0
2023-05-22T06:05:18.516Z,0
2023-05-22T06:10:19.039Z,0
2023-05-22T06:15:18.572Z,0
2023-05-22T06:20:18.601Z,0
2023-05-22T06:25:18.860Z,0
2023-05-22T06:30:28.212Z,0
2023-05-22T06:35:18.538Z,0
2023-05-22T06:40:18.683Z,0
2023-05-22T06:45:19.080Z,0
2023-05-22T06:50:18.787Z,0
2023-05-22T06:55:18.787Z,0
2023-05-22T07:00:21.584Z,0
2023-05-22T07:05:18.680Z,0
2023-05-22T07:10:18.901Z,0
2023-05-22T07:15:18.648Z,0
2023-05-22T07:20:19.195Z,0
2023-05-22T07:25:18.734Z,0
2023-05-22T07:30:19.084Z,0
2023-05-22T07:35:18.620Z,0
2023-05-22T07:40:21.536Z,0
2023-05-22T07:45:19.742Z,0
2023-05-22T07:50:19.922Z,0
2023-05-22T07:55:19.149Z,0
2023-05-22T08:00:18.763Z,0
2023-05-22T08:05:18.946Z,0
2023-05-22T08:10:19.127Z,0
2023-05-22T08:15:18.735Z,0
2023-05-22T08:20:19.034Z,0
2023-05-22T08:25:19.044Z,0
2023-05-22T08:30:19.287Z,0
2023-05-22T08:35:18.982Z,0
2023-05-22T08:40:18.981Z,0
2023-05-22T08:45:18.851Z,0
2023-05-22T08:50:18.900Z,0
2023-05-22T08:55:17.225Z,0
2023-05-22T09:00:16.881Z,0
2023-05-22T09:05:17.325Z,0
2023-05-22T09:10:17.198Z,0
2023-05-22T09:15:16.889Z,0
2023-05-22T09:20:17.414Z,6
2023-05-22T09:25:17.084Z,10
2023-05-22T09:30:17.002Z,14
2023-05-22T09:35:17.366Z,18
2023-05-22T09:40:17.379Z,23
2023-05-22T09:45:18.270Z,27
2023-05-22T09:50:18.041Z,31
2023-05-22T09:55:17.145Z,36
2023-05-22T10:00:17.073Z,44
2023-05-22T10:05:17.064Z,51
2023-05-22T10:10:17.808Z,59
2023-05-22T10:15:17.061Z,68
2023-05-22T10:20:17.059Z,80
2023-05-22T10:25:19.243Z,93
2023-05-22T10:30:17.546Z,100
2023-05-22T10:35:17.206Z,97
2023-05-22T10:40:17.470Z,110
2023-05-22T10:45:17.658Z,125
2023-05-22T10:50:17.197Z,135
2023-05-22T10:55:17.378Z,148
2023-05-22T11:00:17.128Z,151
2023-05-22T11:05:17.188Z,164
2023-05-22T11:10:17.556Z,186
2023-05-22T11:15:17.286Z,200
2023-05-22T11:20:17.744Z,211
2023-05-22T11:25:17.243Z,223
2023-05-22T11:30:17.689Z,236
2023-05-22T11:35:17.453Z,255
2023-05-22T11:40:17.609Z,268
2023-05-22T11:45:18.398Z,287
2023-05-22T11:50:41.134Z,303
2023-05-22T11:55:17.475Z,314
2023-05-22T12:00:17.521Z,323
2023-05-22T12:05:17.499Z,329
2023-05-22T12:10:17.673Z,338
2023-05-22T12:15:17.330Z,350
2023-05-22T12:20:17.438Z,359
2023-05-22T12:25:17.871Z,364
2023-05-22T12:30:17.455Z,370
2023-05-22T12:35:17.489Z,380
2023-05-22T12:40:17.688Z,388
2023-05-22T12:45:17.313Z,398
2023-05-22T12:50:17.680Z,413
2023-05-22T12:55:17.502Z,419
2023-05-22T13:00:17.931Z,426
2023-05-22T13:05:17.486Z,435
2023-05-22T13:10:17.793Z,451
2023-05-22T13:15:17.595Z,463
2023-05-22T13:20:17.415Z,479
2023-05-22T13:25:17.769Z,495
2023-05-22T13:30:17.526Z,504
2023-05-22T13:35:17.825Z,529
2023-05-22T13:40:17.775Z,569
2023-05-22T13:45:18.482Z,597
2023-05-22T13:50:18.900Z,627
2023-05-22T13:55:17.785Z,644
2023-05-22T14:00:17.639Z,661
2023-05-22T14:05:17.482Z,678
2023-05-22T14:10:18.396Z,696
2023-05-22T14:15:17.995Z,707
2023-05-22T14:20:17.484Z,719
2023-05-22T14:25:17.855Z,729
2023-05-22T14:30:17.686Z,740
2023-05-22T14:35:17.745Z,752
2023-05-22T14:40:18.002Z,762
2023-05-22T14:45:17.967Z,772
2023-05-22T14:50:20.401Z,785
2023-05-22T14:55:17.978Z,794
2023-05-22T15:00:17.885Z,803
2023-05-22T15:05:17.892Z,811
2023-05-22T15:10:17.837Z,822
2023-05-22T15:15:17.675Z,829
2023-05-22T15:20:18.195Z,834
2023-05-22T15:25:17.940Z,833
2023-05-22T15:30:18.710Z,843
2023-05-22T15:35:17.976Z,855
2023-05-22T15:40:17.937Z,864
2023-05-22T15:45:18.914Z,871
2023-05-22T15:50:19.597Z,876
2023-05-22T15:55:17.952Z,883
2023-05-22T16:00:18.612Z,887
2023-05-22T16:05:17.826Z,890
2023-05-22T16:10:19.836Z,884
2023-05-22T16:15:18.078Z,884
2023-05-22T16:20:17.925Z,894
2023-05-22T16:25:18.465Z,899
2023-05-22T16:30:18.129Z,906
2023-05-22T16:35:17.898Z,912
2023-05-22T16:40:18.398Z,912
2023-05-22T16:45:17.890Z,915
2023-05-22T16:50:17.946Z,915
2023-05-22T16:55:18.043Z,911
2023-05-22T17:00:18.101Z,912
2023-05-22T17:05:17.847Z,912
2023-05-22T17:10:18.375Z,921
2023-05-22T17:15:17.943Z,919
2023-05-22T17:20:18.272Z,917
2023-05-22T17:25:18.117Z,914
2023-05-22T17:30:18.069Z,913
2023-05-22T17:35:18.385Z,910
2023-05-22T17:40:18.751Z,906
2023-05-22T17:45:19.229Z,901
2023-05-22T17:50:19.198Z,898
2023-05-22T17:55:18.354Z,894
2023-05-22T18:00:18.122Z,888
2023-05-22T18:05:17.995Z,882
2023-05-22T18:10:18.931Z,874
2023-05-22T18:15:18.039Z,869
2023-05-22T18:20:18.323Z,862
2023-05-22T18:25:18.360Z,855
2023-05-22T18:30:18.504Z,848
2023-05-22T18:35:18.125Z,842
2023-05-22T18:40:18.283Z,836
2023-05-22T18:45:18.307Z,829
2023-05-22T18:50:18.284Z,819
2023-05-22T18:55:18.486Z,808
2023-05-22T19:00:18.208Z,798
2023-05-22T19:05:18.344Z,790
2023-05-22T19:10:18.923Z,777
2023-05-22T19:15:18.104Z,770
2023-05-22T19:20:18.561Z,757
2023-05-22T19:25:18.425Z,743
2023-05-22T19:30:18.348Z,732
2023-05-22T19:35:18.195Z,721
2023-05-22T19:40:18.929Z,711
2023-05-22T19:45:19.371Z,704
2023-05-22T19:50:20.153Z,693
2023-05-22T19:55:18.356Z,681
2023-05-22T20:00:18.371Z,666
2023-05-22T20:05:18.499Z,657
2023-05-22T20:10:18.563Z,644
2023-05-22T20:15:18.439Z,634
2023-05-22T20:20:18.629Z,622
2023-05-22T20:25:18.869Z,613
2023-05-22T20:30:19.391Z,604
2023-05-22T20:35:18.340Z,596
2023-05-22T20:40:18.597Z,584
2023-05-22T20:45:18.974Z,570
2023-05-22T20:50:18.650Z,559
2023-05-22T20:55:18.728Z,538
2023-05-22T21:00:18.817Z,524
2023-05-22T21:05:18.559Z,476
2023-05-22T21:10:18.644Z,433
2023-05-22T21:15:18.770Z,401
2023-05-22T21:20:18.768Z,375
2023-05-22T21:25:18.578Z,341
2023-05-22T21:30:18.472Z,315
2023-05-22T21:35:18.773Z,301
2023-05-22T21:40:18.805Z,288
2023-05-22T21:45:19.479Z,274
2023-05-22T21:50:19.564Z,256
2023-05-22T21:55:19.048Z,216
2023-05-22T22:00:18.647Z,128
2023-05-22T22:05:18.570Z,124
2023-05-22T22:10:19.367Z,120
2023-05-22T22:15:18.578Z,116
2023-05-22T22:20:20.423Z,112
2023-05-22T22:25:18.994Z,107
2023-05-22T22:30:18.767Z,102
2023-05-22T22:35:18.586Z,97
2023-05-22T22:40:18.790Z,92
2023-05-22T22:45:19.235Z,85
2023-05-22T22:50:18.789Z,80
2023-05-22T22:55:18.793Z,76
2023-05-22T23:00:18.753Z,71
2023-05-22T23:05:18.884Z,66
2023-05-22T23:10:19.243Z,61
2023-05-22T23:15:18.806Z,56
2023-05-22T23:20:19.155Z,50
2023-05-22T23:25:18.968Z,45
2023-05-22T23:30:18.959Z,40
2023-05-22T23:35:19.014Z,35
2023-05-22T23:40:18.974Z,30
2023-05-22T23:45:19.890Z,24
2023-05-22T23:50:20.945Z,19
2023-05-22T23:55:18.958Z,15
